Time;durP1;ratioP1;P1;durP2;ratioP2;P2;SDS_P1;SDS_P2;PMS_P1;PMS_P2;Temp;Humidity;BMP_temperature;BMP_pressure;BME280_temperature;BME280_humidity;BME280_pressure;Samples;Min_cycle;Max_cycle;Signal;HPM_P1;HPM_P2
2022/02/05 00:00:15;;;;;;;;;;;;;;;24.62;31.96;97126.41;173359;28;947;-56
2022/02/05 00:00:35;;;;;;;;;;;;;;;24.60;32.18;97138.03;173395;28;797;-56
2022/02/05 00:00:44;;;;;;;;;;;;;;;24.60;31.95;97138.03;173396;28;1201;-55
2022/02/05 00:00:49;;;;;;;;;;;;;;;24.59;32.09;97144.28;173260;28;897;-57
2022/02/05 00:00:54;;;;;;;;;;;;;;;24.59;31.93;97144.28;173233;28;1106;-56
2022/02/05 00:01:06;;;;;;;;;;;;;;;24.61;32.00;97139.72;173166;28;1117;-56
2022/02/05 00:01:21;;;;;;;;;;;;;;;24.60;31.97;97145.97;172748;28;886;-56
2022/02/05 00:01:36;;;;;;;;;;;;;;;24.62;32.04;97141.38;173267;28;1002;-57
2022/02/05 00:01:51;;;;;;;;;;;;;;;24.62;31.97;97141.38;172794;28;901;-56
2022/02/05 00:02:02;;;;;;;;;;;;;;;24.61;32.15;97140.56;172726;28;953;-56
2022/02/05 00:02:17;;;;;;;;;;;;;;;24.59;31.99;97144.28;169636;29;4313;-56
2022/02/05 00:02:26;;;;;;;;;;;;;;;24.61;31.83;97145.00;169888;28;1300;-53
2022/02/05 00:02:39;;;;;;;;;;;;;;;24.59;32.03;97142.50;170086;29;964;-55
2022/02/05 00:02:54;;;;;;;;;;;;;;;24.57;32.11;97144.41;169955;29;854;-58
2022/02/05 00:03:12;;;;;;;;;;;;;;;24.60;31.78;97148.59;170043;28;925;-54
2022/02/05 00:03:38;;;;;;;;;;;;;;;24.60;32.00;97152.06;169879;29;916;-56
2022/02/05 00:03:48;;;;;;;;;;;;;;;24.59;32.03;97144.28;170647;28;893;-56
2022/02/05 00:03:59;;;;;;;;;;;;;;;24.58;32.15;97145.25;170469;29;869;-57
2022/02/05 00:04:09;;;;;;;;;;;;;;;24.58;31.83;97140.81;169758;29;956;-55
2022/02/05 00:04:16;;;;;;;;;;;;;;;24.60;32.06;97145.97;170576;29;1277;-56
2022/02/05 00:04:22;;;;;;;;;;;;;;;24.60;32.08;97140.69;170510;29;865;-56
2022/02/05 00:04:27;;;;;;;;;;;;;;;24.61;31.78;97142.34;169937;29;834;-56
2022/02/05 00:04:34;;;;;;;;;;;;;;;24.61;31.90;97139.72;169894;28;892;-57
2022/02/05 00:04:39;;;;;;;;;;;;;;;24.61;31.83;97139.72;170223;28;1509;-55
2022/02/05 00:04:46;;;;;;;;;;;;;;;24.61;31.89;97140.56;170572;29;802;-56
2022/02/05 00:04:52;;;;;;;;;;;;;;;24.60;32.03;97138.88;169822;29;912;-56
2022/02/05 00:04:58;;;;;;;;;;;;;;;24.61;31.88;97139.72;169911;29;1121;-57
2022/02/05 00:05:04;;;;;;;;;;;;;;;24.62;31.82;97138.75;170338;28;1090;-56
2022/02/05 00:05:11;;;;;;;;;;;;;;;24.62;31.75;97138.75;170560;28;1169;-56
2022/02/05 00:05:19;;;;;;;;;;;;;;;24.62;31.76;97134.31;170549;29;912;-56
2022/02/05 00:05:50;;;;;;;;;;;;;;;24.62;31.74;97138.75;170541;29;1228;-56
2022/02/05 00:05:59;;;;;;;;;;;;;;;24.62;32.13;97133.47;170110;29;1908;-57
2022/02/05 00:06:06;;;;;;;;;;;;;;;24.63;32.07;97137.78;169579;28;5603;-55
2022/02/05 00:06:14;;;;;;;;;;;;;;;24.62;31.96;97134.31;170462;29;1205;-57
2022/02/05 00:06:25;;;;;;;;;;;;;;;24.62;32.15;97134.31;169960;29;1113;-57
2022/02/05 00:06:35;;;;;;;;;;;;;;;24.64;32.15;97142.09;170611;29;853;-57
2022/02/05 00:06:43;;;;;;;;;;;;;;;24.62;32.09;97138.75;169937;29;916;-57
2022/02/05 00:06:52;;;;;;;;;;;;;;;24.64;31.80;97145.56;169895;29;921;-56
2022/02/05 00:06:58;;;;;;;;;;;;;;;24.63;32.04;97140.41;170459;29;1149;-56
2022/02/05 00:07:05;;;;;;;;;;;;;;;24.64;31.71;97150.00;170180;28;1212;-56
2022/02/05 00:07:11;;;;;;;;;;;;;;;24.64;31.78;97144.72;170493;29;1185;-56
2022/02/05 00:07:16;;;;;;;;;;;;;;;24.65;32.08;97146.44;170600;29;925;-56
2022/02/05 00:07:23;;;;;;;;;;;;;;;24.63;31.81;97143.91;170488;29;1014;-54
2022/02/05 00:07:31;;;;;;;;;;;;;;;24.62;31.81;97144.03;170540;29;862;-53
2022/02/05 00:07:42;;;;;;;;;;;;;;;24.64;32.07;97140.28;169901;29;866;-54
2022/02/05 00:07:56;;;;;;;;;;;;;;;24.65;31.95;97131.44;170623;29;956;-57
2022/02/05 00:08:59;;;;;;;;;;;;;;;24.67;31.86;97134.78;170008;28;990;-57
2022/02/05 00:09:03;;;;;;;;;;;;;;;24.65;32.12;97139.34;169797;29;1106;-56
2022/02/05 00:11:48;;;;;;;;;;;;;;;24.49;32.09;97133.66;172538;28;1121;-57
2022/02/05 00:13:18;;;;;;;;;;;;;;;24.44;32.17;97133.19;173438;28;903;-55
2022/02/05 00:14:11;;;;;;;;;;;;;;;24.46;32.16;97134.72;174064;28;974;-56
2022/02/05 00:15:33;;;;;;;;;;;;;;;24.46;32.29;97147.91;172382;28;1175;-57
2022/02/05 00:15:40;;;;;;;;;;;;;;;24.47;32.37;97143.47;173440;28;687;-56
2022/02/05 00:15:48;;;;;;;;;;;;;;;24.46;32.40;97161.06;174016;28;872;-58
2022/02/05 00:20:06;;;;;;;;;;;;;;;24.45;32.44;97156.78;172724;28;644;-56
2022/02/05 00:39:25;;;;;;;;;;;;;;;24.22;32.65;97190.19;172586;28;682;-57
2022/02/05 00:39:57;;;;;;;;;;;;;;;24.28;32.57;97196.78;172557;28;1209;-56
2022/02/05 00:40:09;;;;;;;;;;;;;;;24.28;32.63;97195.94;172295;28;1125;-57
2022/02/05 00:40:42;;;;;;;;;;;;;;;24.29;32.69;97192.34;171934;28;932;-55
2022/02/05 00:40:54;;;;;;;;;;;;;;;24.33;32.73;97196.44;172605;28;888;-56
2022/02/05 00:41:12;;;;;;;;;;;;;;;24.35;32.46;97186.63;172378;28;1001;-57
2022/02/05 00:41:25;;;;;;;;;;;;;;;24.38;32.65;97191.66;172505;28;1690;-56
2022/02/05 00:41:46;;;;;;;;;;;;;;;24.39;32.70;97204.69;172490;28;1182;-56
2022/02/05 00:42:04;;;;;;;;;;;;;;;24.40;32.56;97187.09;172511;28;928;-56
2022/02/05 00:42:38;;;;;;;;;;;;;;;24.43;32.31;97186.84;172427;28;4292;-56
2022/02/05 00:42:43;;;;;;;;;;;;;;;24.43;32.58;97190.34;172762;28;1015;-57
2022/02/05 00:42:50;;;;;;;;;;;;;;;24.42;32.51;97196.56;174056;28;892;-56
2022/02/05 00:42:55;;;;;;;;;;;;;;;24.44;32.62;97191.16;173778;28;865;-56
2022/02/05 00:43:01;;;;;;;;;;;;;;;24.44;32.65;97201.72;173851;28;1187;-56
2022/02/05 00:43:06;;;;;;;;;;;;;;;24.44;32.24;97192.00;173899;28;1918;-56
2022/02/05 00:43:13;;;;;;;;;;;;;;;24.44;32.39;97188.53;174064;28;905;-56
2022/02/05 00:43:18;;;;;;;;;;;;;;;24.45;32.29;97198.09;173990;28;1271;-57
2022/02/05 00:43:23;;;;;;;;;;;;;;;24.45;32.29;97198.09;174007;28;878;-56
2022/02/05 00:43:30;;;;;;;;;;;;;;;24.44;32.62;97199.06;173912;28;1236;-54
2022/02/05 00:43:35;;;;;;;;;;;;;;;24.42;32.31;97193.09;174027;28;505;-56
2022/02/05 00:43:49;;;;;;;;;;;;;;;24.41;32.47;97192.25;174016;28;872;-55
2022/02/05 00:43:58;;;;;;;;;;;;;;;24.45;32.20;97191.03;173308;28;889;-57
2022/02/05 00:44:04;;;;;;;;;;;;;;;24.44;32.48;97191.16;173617;28;1116;-54
2022/02/05 00:44:09;;;;;;;;;;;;;;;24.44;32.28;97194.63;173727;28;1559;-56
2022/02/05 00:44:14;;;;;;;;;;;;;;;24.44;32.36;97194.63;174023;28;1105;-56
2022/02/05 00:44:20;;;;;;;;;;;;;;;24.46;32.51;97186.59;173668;28;781;-56
2022/02/05 00:44:25;;;;;;;;;;;;;;;24.46;32.40;97191.88;173264;28;1189;-57
2022/02/05 00:44:30;;;;;;;;;;;;;;;24.47;32.43;97197.00;174053;28;833;-57
2022/02/05 00:44:35;;;;;;;;;;;;;;;24.46;32.45;97194.50;174046;28;892;-56
2022/02/05 00:44:40;;;;;;;;;;;;;;;24.46;32.50;97195.34;174024;28;1172;-56
2022/02/05 00:44:45;;;;;;;;;;;;;;;24.47;32.43;97191.75;174095;28;714;-57
2022/02/05 00:44:51;;;;;;;;;;;;;;;24.49;32.14;97195.13;173917;28;1148;-56
2022/02/05 00:44:56;;;;;;;;;;;;;;;24.49;32.56;97189.00;173937;28;987;-56
2022/02/05 00:45:06;;;;;;;;;;;;;;;24.49;32.23;97189.84;173814;28;1139;-56
2022/02/05 00:45:12;;;;;;;;;;;;;;;24.53;32.37;97206.25;172721;28;1078;-56
2022/02/05 00:45:17;;;;;;;;;;;;;;;24.52;32.41;97198.47;173251;28;944;-56
2022/02/05 00:45:22;;;;;;;;;;;;;;;24.50;32.12;97199.44;173271;28;933;-56
2022/02/05 00:45:32;;;;;;;;;;;;;;;24.51;31.94;97205.53;173338;28;904;-56
2022/02/05 00:45:41;;;;;;;;;;;;;;;24.52;32.29;97204.56;173275;28;1141;-56
2022/02/05 00:45:50;;;;;;;;;;;;;;;24.52;32.20;97204.56;172604;28;837;-56
2022/02/05 00:45:56;;;;;;;;;;;;;;;24.54;32.17;97204.44;172620;28;888;-57
2022/02/05 00:46:02;;;;;;;;;;;;;;;24.54;32.42;97209.72;172812;28;1191;-56
2022/02/05 00:46:08;;;;;;;;;;;;;;;24.53;32.37;97203.59;173334;28;809;-57
2022/02/05 00:46:14;;;;;;;;;;;;;;;24.51;32.15;97197.63;173297;28;829;-57
2022/02/05 00:46:20;;;;;;;;;;;;;;;24.53;32.48;97205.41;172901;28;4214;-56
2022/02/05 00:46:29;;;;;;;;;;;;;;;24.53;32.27;97216.78;173314;28;838;-56
2022/02/05 00:46:38;;;;;;;;;;;;;;;24.53;32.22;97206.25;173283;28;928;-56
2022/02/05 00:46:45;;;;;;;;;;;;;;;24.54;32.28;97210.56;172706;28;865;-57
2022/02/05 00:46:51;;;;;;;;;;;;;;;24.55;32.12;97203.47;173277;28;955;-56
2022/02/05 00:46:57;;;;;;;;;;;;;;;24.55;32.37;97201.69;173141;28;806;-54
2022/02/05 00:47:02;;;;;;;;;;;;;;;24.55;32.34;97206.94;173100;28;1203;-56
2022/02/05 00:47:07;;;;;;;;;;;;;;;24.53;32.07;97203.59;173353;28;849;-54
2022/02/05 00:47:13;;;;;;;;;;;;;;;24.54;32.32;97210.56;173673;28;1220;-56
2022/02/05 00:47:18;;;;;;;;;;;;;;;24.54;32.37;97207.91;173974;28;931;-55
2022/02/05 00:47:24;;;;;;;;;;;;;;;24.54;32.13;97207.06;174116;28;984;-55
2022/02/05 00:47:31;;;;;;;;;;;;;;;24.55;32.10;97209.59;174089;28;842;-56
2022/02/05 00:47:39;;;;;;;;;;;;;;;24.53;32.31;97211.50;174018;28;833;-57
2022/02/05 00:47:46;;;;;;;;;;;;;;;24.54;32.37;97214.97;174024;28;857;-55
2022/02/05 00:47:51;;;;;;;;;;;;;;;24.51;32.13;97205.53;174082;28;908;-56
2022/02/05 00:47:59;;;;;;;;;;;;;;;24.53;32.29;97208.88;173948;28;817;-55
2022/02/05 00:48:06;;;;;;;;;;;;;;;24.55;32.31;97209.59;173790;28;873;-56
2022/02/05 00:48:13;;;;;;;;;;;;;;;24.57;32.24;97220.00;174087;28;912;-56
2022/02/05 00:48:18;;;;;;;;;;;;;;;24.56;31.98;97213.88;173949;28;1230;-56
2022/02/05 00:48:24;;;;;;;;;;;;;;;24.56;32.13;97205.97;174062;28;833;-56
2022/02/05 00:48:29;;;;;;;;;;;;;;;24.57;32.16;97206.81;173328;28;1318;-55
2022/02/05 00:48:34;;;;;;;;;;;;;;;24.56;32.26;97210.41;172887;28;1510;-54
2022/02/05 00:48:40;;;;;;;;;;;;;;;24.56;32.19;97207.78;173127;28;891;-53
2022/02/05 00:48:45;;;;;;;;;;;;;;;24.55;32.39;97211.38;173215;28;893;-56
2022/02/05 00:48:50;;;;;;;;;;;;;;;24.55;32.39;97214.03;173202;28;1216;-56
2022/02/05 00:48:55;;;;;;;;;;;;;;;24.55;32.19;97211.38;173355;28;901;-55
2022/02/05 00:49:01;;;;;;;;;;;;;;;24.55;32.07;97212.22;172743;28;974;-54
2022/02/05 00:49:06;;;;;;;;;;;;;;;24.56;32.14;97211.25;173259;28;841;-54
2022/02/05 00:49:12;;;;;;;;;;;;;;;24.56;32.23;97211.25;173387;28;904;-54
2022/02/05 00:49:17;;;;;;;;;;;;;;;24.57;32.04;97212.09;174018;28;897;-59
2022/02/05 00:49:23;;;;;;;;;;;;;;;24.56;32.03;97213.06;173974;28;845;-56
2022/02/05 00:49:28;;;;;;;;;;;;;;;24.56;32.16;97210.41;173340;28;1263;-56
2022/02/05 00:49:33;;;;;;;;;;;;;;;24.54;32.07;97205.28;173296;28;948;-54
2022/02/05 00:49:38;;;;;;;;;;;;;;;24.56;32.31;97215.69;172846;28;1565;-54
2022/02/05 00:49:48;;;;;;;;;;;;;;;24.57;32.34;97214.72;172752;28;873;-54
2022/02/05 00:49:58;;;;;;;;;;;;;;;24.57;32.25;97207.69;173119;28;897;-56
2022/02/05 00:50:06;;;;;;;;;;;;;;;24.59;32.11;97204.91;172561;28;4411;-53
2022/02/05 00:50:18;;;;;;;;;;;;;;;24.58;32.12;97206.72;173213;28;931;-55
2022/02/05 00:50:26;;;;;;;;;;;;;;;24.58;32.35;97213.78;173017;28;912;-56
2022/02/05 00:50:34;;;;;;;;;;;;;;;24.58;32.30;97206.72;174068;28;860;-54
2022/02/05 00:50:44;;;;;;;;;;;;;;;24.57;32.00;97207.69;174055;28;1081;-53
2022/02/05 00:50:57;;;;;;;;;;;;;;;24.57;32.06;97210.31;173898;28;1120;-55
2022/02/05 00:51:17;;;;;;;;;;;;;;;24.58;32.08;97211.16;173635;28;1161;-53
2022/02/05 00:51:31;;;;;;;;;;;;;;;24.59;31.99;97215.47;173318;28;853;-55
2022/02/05 00:51:42;;;;;;;;;;;;;;;24.55;32.30;97217.50;173995;28;1053;-55
2022/02/05 00:52:02;;;;;;;;;;;;;;;24.55;32.30;97217.50;173964;28;958;-54
2022/02/05 00:52:11;;;;;;;;;;;;;;;24.54;32.04;97220.25;173307;28;956;-54
2022/02/05 00:52:19;;;;;;;;;;;;;;;24.52;32.41;97209.00;173298;28;945;-54
2022/02/05 00:52:25;;;;;;;;;;;;;;;24.51;32.22;97213.44;173591;28;1262;-55
2022/02/05 00:52:31;;;;;;;;;;;;;;;24.53;32.27;97210.69;173174;28;869;-53
2022/02/05 00:52:36;;;;;;;;;;;;;;;24.52;32.48;97216.91;173211;28;1090;-56
2022/02/05 00:52:45;;;;;;;;;;;;;;;24.53;32.19;97218.59;173340;28;822;-53
2022/02/05 00:53:27;;;;;;;;;;;;;;;24.54;32.23;97218.47;172679;28;912;-53
2022/02/05 00:53:36;;;;;;;;;;;;;;;24.53;32.09;97216.78;172690;28;952;-54
2022/02/05 00:53:44;;;;;;;;;;;;;;;24.49;32.27;97213.56;173340;28;881;-53
2022/02/05 00:54:00;;;;;;;;;;;;;;;24.49;32.32;97218.84;173844;28;892;-56
2022/02/05 00:54:15;;;;;;;;;;;;;;;24.50;32.32;97215.25;172350;28;4411;-55
2022/02/05 00:54:23;;;;;;;;;;;;;;;24.53;32.39;97221.22;170689;28;1069;-57
2022/02/05 00:54:28;;;;;;;;;;;;;;;24.53;32.22;97229.13;171920;28;877;-56
2022/02/05 00:54:34;;;;;;;;;;;;;;;24.50;32.14;97222.31;170519;29;971;-53
2022/02/05 00:54:41;;;;;;;;;;;;;;;24.51;32.27;97226.63;170572;29;881;-55
2022/02/05 00:54:51;;;;;;;;;;;;;;;24.52;32.17;97224.81;170521;29;1141;-56
2022/02/05 00:55:10;;;;;;;;;;;;;;;24.50;32.25;97215.25;170076;29;1062;-55
2022/02/05 00:55:23;;;;;;;;;;;;;;;24.49;32.15;97218.00;169971;29;806;-55
2022/02/05 00:55:32;;;;;;;;;;;;;;;24.49;32.25;97212.72;170546;29;869;-55
2022/02/05 00:55:42;;;;;;;;;;;;;;;24.50;32.08;97215.25;170622;29;980;-53
2022/02/05 00:55:54;;;;;;;;;;;;;;;24.50;32.25;97215.25;169947;28;845;-56
2022/02/05 00:56:24;;;;;;;;;;;;;;;24.50;32.22;97217.03;170372;28;964;-56
2022/02/05 00:56:50;;;;;;;;;;;;;;;24.50;32.26;97215.25;170729;28;1761;-55
2022/02/05 00:57:20;;;;;;;;;;;;;;;24.51;32.35;97208.16;169850;29;921;-54
2022/02/05 00:57:45;;;;;;;;;;;;;;;24.49;32.43;97212.72;170373;29;1190;-53
2022/02/05 00:57:50;;;;;;;;;;;;;;;24.48;32.28;97214.50;170041;28;865;-55
2022/02/05 00:58:02;;;;;;;;;;;;;;;24.47;32.33;97206.72;170536;28;1173;-54
2022/02/05 00:58:07;;;;;;;;;;;;;;;24.47;32.22;97220.75;169743;29;4402;-54
2022/02/05 00:58:12;;;;;;;;;;;;;;;24.46;32.62;97218.22;170496;29;818;-55
2022/02/05 00:58:17;;;;;;;;;;;;;;;24.45;32.58;97214.75;170436;29;1022;-54
2022/02/05 00:58:23;;;;;;;;;;;;;;;24.47;32.57;97222.53;170485;29;957;-55
2022/02/05 00:58:28;;;;;;;;;;;;;;;24.47;32.28;97217.25;170587;29;910;-56
2022/02/05 00:58:33;;;;;;;;;;;;;;;24.45;32.43;97206.00;170492;29;1340;-53
2022/02/05 00:58:39;;;;;;;;;;;;;;;24.45;32.33;97214.75;170617;29;1028;-55
2022/02/05 00:58:44;;;;;;;;;;;;;;;24.46;32.23;97220.88;170508;29;1224;-55
2022/02/05 00:58:49;;;;;;;;;;;;;;;24.47;32.49;97227.81;170502;28;904;-56
2022/02/05 00:58:54;;;;;;;;;;;;;;;24.47;32.19;97228.66;170100;29;1138;-54
2022/02/05 00:58:59;;;;;;;;;;;;;;;24.49;32.21;97218.84;170318;28;1030;-54
2022/02/05 00:59:04;;;;;;;;;;;;;;;24.51;32.11;97221.34;170461;28;975;-55
2022/02/05 00:59:10;;;;;;;;;;;;;;;24.52;32.38;97214.28;170589;29;706;-53
2022/02/05 00:59:19;;;;;;;;;;;;;;;24.53;32.42;97223.84;170551;29;886;-54
2022/02/05 00:59:24;;;;;;;;;;;;;;;24.51;32.20;97213.44;169889;29;1024;-57
2022/02/05 00:59:29;;;;;;;;;;;;;;;24.54;32.37;97217.63;170044;28;1134;-54
2022/02/05 00:59:34;;;;;;;;;;;;;;;24.53;32.11;97224.69;170587;29;881;-53
2022/02/05 00:59:39;;;;;;;;;;;;;;;24.53;32.17;97222.06;170541;29;940;-53
2022/02/05 00:59:45;;;;;;;;;;;;;;;24.53;32.15;97218.59;170560;28;1126;-53
2022/02/05 00:59:50;;;;;;;;;;;;;;;24.53;32.22;97221.22;170539;28;841;-55
2022/02/05 00:59:55;;;;;;;;;;;;;;;24.53;32.18;97222.06;170491;28;1113;-54
2022/02/05 01:00:00;;;;;;;;;;;;;;;24.52;32.38;97224.81;170349;28;1128;-56
2022/02/05 01:00:06;;;;;;;;;;;;;;;24.50;32.19;97231.06;170178;28;967;-55
2022/02/05 01:00:15;;;;;;;;;;;;;;;24.51;32.46;97229.25;170709;28;1040;-52
2022/02/05 01:00:20;;;;;;;;;;;;;;;24.52;32.35;97216.91;170551;28;730;-56
2022/02/05 01:00:26;;;;;;;;;;;;;;;24.52;32.33;97223.03;170570;29;901;-54
2022/02/05 01:00:31;;;;;;;;;;;;;;;24.50;32.28;97214.41;170505;29;1081;-55
2022/02/05 01:00:37;;;;;;;;;;;;;;;24.50;32.38;97222.31;170477;29;865;-56
2022/02/05 01:00:42;;;;;;;;;;;;;;;24.50;32.19;97227.59;170585;28;1177;-55
2022/02/05 01:00:47;;;;;;;;;;;;;;;24.50;32.36;97219.69;170520;29;968;-54
2022/02/05 01:00:52;;;;;;;;;;;;;;;24.49;32.47;97216.22;170524;29;884;-54
2022/02/05 01:00:57;;;;;;;;;;;;;;;24.49;32.58;97210.09;170478;29;876;-54
2022/02/05 01:01:03;;;;;;;;;;;;;;;24.52;32.33;97215.13;170232;28;1049;-54
2022/02/05 01:01:09;;;;;;;;;;;;;;;24.50;32.18;97214.41;170556;29;929;-54
2022/02/05 01:01:14;;;;;;;;;;;;;;;24.51;32.12;97216.06;170549;29;1114;-55
2022/02/05 01:01:19;;;;;;;;;;;;;;;24.51;32.27;97216.06;170540;29;897;-53
2022/02/05 01:01:24;;;;;;;;;;;;;;;24.52;32.13;97219.53;170534;29;937;-55
2022/02/05 01:01:30;;;;;;;;;;;;;;;24.53;32.15;97216.78;170452;29;1169;-57
2022/02/05 01:01:35;;;;;;;;;;;;;;;24.52;32.34;97219.53;170634;28;889;-56
2022/02/05 01:01:41;;;;;;;;;;;;;;;24.53;32.40;97213.31;170644;28;947;-55
2022/02/05 01:01:46;;;;;;;;;;;;;;;24.50;32.67;97211.78;170584;29;810;-58
2022/02/05 01:01:51;;;;;;;;;;;;;;;24.52;32.60;97215.13;170482;29;1012;-54
2022/02/05 01:01:57;;;;;;;;;;;;;;;24.51;32.36;97210.81;170493;29;814;-55
2022/02/05 01:02:02;;;;;;;;;;;;;;;24.53;32.21;97216.78;169780;28;4510;-62
2022/02/05 01:02:07;;;;;;;;;;;;;;;24.53;32.19;97218.59;170511;28;850;-54
2022/02/05 01:02:12;;;;;;;;;;;;;;;24.53;32.38;97224.69;170656;28;883;-54
2022/02/05 01:02:17;;;;;;;;;;;;;;;24.53;32.42;97227.31;170557;28;1185;-54
2022/02/05 01:02:23;;;;;;;;;;;;;;;24.52;32.25;97230.94;170453;29;1213;-54
2022/02/05 01:02:28;;;;;;;;;;;;;;;24.54;32.14;97230.81;170434;29;1022;-55
2022/02/05 01:02:33;;;;;;;;;;;;;;;24.54;32.27;97218.47;170518;29;813;-54
2022/02/05 01:02:38;;;;;;;;;;;;;;;24.54;32.33;97223.72;170539;29;1231;-53
2022/02/05 01:02:44;;;;;;;;;;;;;;;24.55;32.40;97232.47;170546;29;1016;-54
2022/02/05 01:02:49;;;;;;;;;;;;;;;24.55;31.97;97235.09;170536;29;818;-56
2022/02/05 01:02:54;;;;;;;;;;;;;;;24.56;32.33;97234.97;170548;29;761;-53
2022/02/05 01:02:59;;;;;;;;;;;;;;;24.56;32.21;97234.16;170389;28;1274;-55
2022/02/05 01:03:04;;;;;;;;;;;;;;;24.55;32.52;97232.47;170432;28;991;-54
2022/02/05 01:03:10;;;;;;;;;;;;;;;24.55;32.30;97235.09;170225;28;1903;-53
2022/02/05 01:03:15;;;;;;;;;;;;;;;24.55;32.17;97230.69;170242;28;1394;-54
2022/02/05 01:03:20;;;;;;;;;;;;;;;24.54;32.31;97238.72;170437;29;941;-55
2022/02/05 01:03:25;;;;;;;;;;;;;;;24.54;32.17;97233.44;170433;28;912;-53
2022/02/05 01:03:30;;;;;;;;;;;;;;;24.53;32.38;97231.75;170495;29;925;-54
2022/02/05 01:03:36;;;;;;;;;;;;;;;24.54;32.55;97236.06;170586;29;1024;-54
2022/02/05 01:03:41;;;;;;;;;;;;;;;24.54;32.51;97242.19;170549;29;1161;-54
2022/02/05 01:03:47;;;;;;;;;;;;;;;24.53;32.19;97231.75;170630;29;877;-55
2022/02/05 01:03:52;;;;;;;;;;;;;;;24.51;32.55;97239.81;170054;29;773;-57
2022/02/05 01:03:57;;;;;;;;;;;;;;;24.52;32.25;97235.38;170106;29;1256;-54
2022/02/05 01:04:03;;;;;;;;;;;;;;;24.54;32.19;97239.53;170433;28;1133;-53
2022/02/05 01:04:08;;;;;;;;;;;;;;;24.54;32.14;97242.19;170501;29;1098;-55
2022/02/05 01:04:13;;;;;;;;;;;;;;;24.54;32.45;97244.81;170536;29;905;-56
2022/02/05 01:04:18;;;;;;;;;;;;;;;24.55;32.12;97246.50;170480;29;963;-56
2022/02/05 01:04:24;;;;;;;;;;;;;;;24.54;32.11;97247.44;170560;29;873;-54
2022/02/05 01:04:29;;;;;;;;;;;;;;;24.54;32.43;97247.44;170569;29;938;-55
2022/02/05 01:04:34;;;;;;;;;;;;;;;24.53;32.26;97248.41;170497;29;1313;-56
2022/02/05 01:04:39;;;;;;;;;;;;;;;24.53;32.24;97248.41;170216;29;1544;-54
2022/02/05 01:04:44;;;;;;;;;;;;;;;24.52;32.24;97240.63;170329;28;877;-55
2022/02/05 01:04:49;;;;;;;;;;;;;;;24.50;32.30;97249.50;170554;28;1181;-54
2022/02/05 01:04:55;;;;;;;;;;;;;;;24.53;32.21;97255.50;170591;28;890;-56
2022/02/05 01:05:00;;;;;;;;;;;;;;;24.51;32.29;97250.34;170361;28;1149;-56
2022/02/05 01:05:05;;;;;;;;;;;;;;;24.53;32.45;97253.69;170505;28;945;-55
2022/02/05 01:05:10;;;;;;;;;;;;;;;24.55;32.16;97256.19;170498;29;1176;-53
2022/02/05 01:05:17;;;;;;;;;;;;;;;24.54;32.23;97263.28;170556;29;854;-53
2022/02/05 01:05:22;;;;;;;;;;;;;;;24.55;32.18;97249.13;170473;29;1243;-55
2022/02/05 01:05:27;;;;;;;;;;;;;;;24.57;32.32;97254.28;170526;29;826;-53
2022/02/05 01:05:35;;;;;;;;;;;;;;;24.56;32.20;97255.22;170579;29;905;-54
2022/02/05 01:05:42;;;;;;;;;;;;;;;24.56;32.39;97257.88;170047;29;794;-54
2022/02/05 01:05:47;;;;;;;;;;;;;;;24.54;32.19;97258.00;170552;29;1102;-54
2022/02/05 01:05:52;;;;;;;;;;;;;;;24.53;32.32;97258.97;170549;29;833;-52
2022/02/05 01:05:58;;;;;;;;;;;;;;;24.54;32.19;97249.25;170171;28;4271;-55
2022/02/05 01:06:03;;;;;;;;;;;;;;;24.55;32.21;97262.31;172983;28;1292;-55
2022/02/05 01:06:08;;;;;;;;;;;;;;;24.54;32.28;97255.38;173138;28;865;-53
2022/02/05 01:06:14;;;;;;;;;;;;;;;24.54;32.13;97265.06;172671;28;979;-53
2022/02/05 01:06:19;;;;;;;;;;;;;;;24.53;32.40;97253.69;172682;28;964;-57
2022/02/05 01:06:24;;;;;;;;;;;;;;;24.56;32.47;97263.16;172992;28;1161;-56
2022/02/05 01:06:29;;;;;;;;;;;;;;;24.55;32.40;97259.66;173335;28;869;-53
2022/02/05 01:06:34;;;;;;;;;;;;;;;24.54;32.23;97258.00;173209;28;1125;-54
2022/02/05 01:06:40;;;;;;;;;;;;;;;24.54;32.46;97249.25;173296;28;1335;-53
2022/02/05 01:06:45;;;;;;;;;;;;;;;24.54;32.14;97259.81;173227;28;1113;-56
2022/02/05 01:06:50;;;;;;;;;;;;;;;24.55;32.25;97259.66;173119;28;956;-56
2022/02/05 01:06:56;;;;;;;;;;;;;;;24.54;32.20;97258.00;173307;28;813;-55
2022/02/05 01:07:01;;;;;;;;;;;;;;;24.54;32.39;97258.00;171529;28;1032;-54
2022/02/05 01:07:06;;;;;;;;;;;;;;;24.54;32.22;97259.81;172600;28;944;-54
2022/02/05 01:07:12;;;;;;;;;;;;;;;24.55;32.28;97261.47;173193;28;1228;-54
2022/02/05 01:07:17;;;;;;;;;;;;;;;24.55;32.51;97262.31;173348;28;889;-57
2022/02/05 01:07:22;;;;;;;;;;;;;;;24.53;32.55;97260.75;173250;28;1133;-55
2022/02/05 01:07:27;;;;;;;;;;;;;;;24.52;32.50;97257.28;173215;28;887;-54
2022/02/05 01:07:32;;;;;;;;;;;;;;;24.50;32.25;97264.50;173228;28;1033;-55
2022/02/05 01:07:38;;;;;;;;;;;;;;;24.53;32.37;97263.41;173293;28;932;-54
2022/02/05 01:07:43;;;;;;;;;;;;;;;24.53;32.42;97263.41;173361;28;999;-57
2022/02/05 01:07:48;;;;;;;;;;;;;;;24.53;32.19;97264.22;173292;28;1343;-54
2022/02/05 01:07:57;;;;;;;;;;;;;;;24.54;32.41;97262.44;173289;28;795;-55
2022/02/05 01:08:02;;;;;;;;;;;;;;;24.53;32.38;97264.22;171743;28;912;-56
2022/02/05 01:08:07;;;;;;;;;;;;;;;24.54;32.44;97265.91;173240;28;1230;-54
2022/02/05 01:08:12;;;;;;;;;;;;;;;24.54;32.51;97260.63;173320;28;912;-54
2022/02/05 01:08:18;;;;;;;;;;;;;;;24.55;32.20;97261.47;173295;28;817;-53
2022/02/05 01:08:25;;;;;;;;;;;;;;;24.56;32.13;97269.25;172889;28;1267;-56
2022/02/05 01:08:31;;;;;;;;;;;;;;;24.56;32.40;97266.63;172560;28;888;-55
2022/02/05 01:08:37;;;;;;;;;;;;;;;24.56;32.39;97269.25;173286;28;888;-57
2022/02/05 01:08:44;;;;;;;;;;;;;;;24.57;32.07;97265.69;173325;28;1161;-56
2022/02/05 01:08:49;;;;;;;;;;;;;;;24.55;32.08;97264.09;173295;28;873;-56
2022/02/05 01:08:55;;;;;;;;;;;;;;;24.55;32.25;97270.22;173279;28;1113;-53
2022/02/05 01:09:03;;;;;;;;;;;;;;;24.54;32.15;97270.34;172414;28;1203;-56
2022/02/05 01:09:12;;;;;;;;;;;;;;;24.55;32.13;97270.22;172931;28;1050;-52
2022/02/05 01:09:23;;;;;;;;;;;;;;;24.55;32.40;97266.75;173264;28;826;-56
2022/02/05 01:09:28;;;;;;;;;;;;;;;24.56;32.04;97274.53;173250;28;900;-54
2022/02/05 01:09:34;;;;;;;;;;;;;;;24.56;32.37;97274.53;173243;28;1213;-55
2022/02/05 01:09:39;;;;;;;;;;;;;;;24.57;32.14;97283.28;173295;28;928;-55
2022/02/05 01:09:47;;;;;;;;;;;;;;;24.56;32.30;97271.88;173154;28;1172;-56
2022/02/05 01:09:52;;;;;;;;;;;;;;;24.57;32.36;97267.44;173025;28;848;-53
2022/02/05 01:09:57;;;;;;;;;;;;;;;24.56;32.30;97269.25;172655;28;5152;-55
2022/02/05 01:10:03;;;;;;;;;;;;;;;24.52;32.48;97265.19;172988;28;1081;-54
2022/02/05 01:10:08;;;;;;;;;;;;;;;24.54;32.07;97270.34;172507;28;1137;-54
2022/02/05 01:10:13;;;;;;;;;;;;;;;24.55;32.33;97274.66;172608;28;861;-54
2022/02/05 01:10:19;;;;;;;;;;;;;;;24.55;32.24;97278.13;172534;28;1244;-54
2022/02/05 01:10:24;;;;;;;;;;;;;;;24.56;32.40;97271.06;172593;28;916;-55
2022/02/05 01:10:30;;;;;;;;;;;;;;;24.55;32.00;97272.84;172547;28;1153;-54
2022/02/05 01:10:35;;;;;;;;;;;;;;;24.56;32.08;97271.06;172638;28;904;-55
2022/02/05 01:10:40;;;;;;;;;;;;;;;24.55;32.10;97278.13;172684;28;913;-55
2022/02/05 01:10:46;;;;;;;;;;;;;;;24.57;32.16;97276.22;170139;29;857;-54
2022/02/05 01:10:51;;;;;;;;;;;;;;;24.57;32.11;97270.09;172744;28;881;-56
2022/02/05 01:10:57;;;;;;;;;;;;;;;24.57;32.36;97273.59;173036;28;1194;-53
2022/02/05 01:11:02;;;;;;;;;;;;;;;24.57;32.32;97281.50;173012;28;1073;-56
2022/02/05 01:11:07;;;;;;;;;;;;;;;24.56;32.11;97274.53;173194;28;1200;-56
2022/02/05 01:11:12;;;;;;;;;;;;;;;24.58;32.11;97279.69;173325;28;971;-55
2022/02/05 01:11:18;;;;;;;;;;;;;;;24.58;32.08;97277.91;173228;28;963;-53
2022/02/05 01:11:23;;;;;;;;;;;;;;;24.58;32.16;97277.06;173335;28;960;-55
2022/02/05 01:11:28;;;;;;;;;;;;;;;24.59;32.26;97281.38;173129;28;1026;-53
2022/02/05 01:11:34;;;;;;;;;;;;;;;24.58;32.30;97271.78;172506;28;881;-52
2022/02/05 01:11:39;;;;;;;;;;;;;;;24.58;32.24;97270.00;172582;28;861;-56
2022/02/05 01:11:44;;;;;;;;;;;;;;;24.58;32.40;97272.63;172460;28;1110;-55
2022/02/05 01:11:49;;;;;;;;;;;;;;;24.59;32.04;97274.31;172589;28;894;-56
2022/02/05 01:11:56;;;;;;;;;;;;;;;24.58;32.18;97282.34;172591;28;1149;-54
2022/02/05 01:12:02;;;;;;;;;;;;;;;24.57;32.43;97280.63;172435;28;1120;-54